sensor_id;sensor_type;location;lat;lon;timestamp;P1;durP1;ratioP1;P2;durP2;ratioP2
11931;SDS011;6025;51.368;6.788;2023-03-15T00:02:20;6.07;;;2.07;;
11931;SDS011;6025;51.368;6.788;2023-03-15T00:07:11;6.97;;;1.93;;
11931;SDS011;6025;51.368;6.788;2023-03-15T00:12:03;6.77;;;2.13;;
11931;SDS011;6025;51.368;6.788;2023-03-15T00:16:56;7.63;;;2.20;;
11931;SDS011;6025;51.368;6.788;2023-03-15T00:21:48;8.57;;;2.97;;
11931;SDS011;6025;51.368;6.788;2023-03-15T00:26:39;6.00;;;2.80;;
11931;SDS011;6025;51.368;6.788;2023-03-15T00:31:31;5.17;;;2.53;;
11931;SDS011;6025;51.368;6.788;2023-03-15T00:36:24;7.40;;;3.20;;
11931;SDS011;6025;51.368;6.788;2023-03-15T00:41:16;9.27;;;3.20;;
11931;SDS011;6025;51.368;6.788;2023-03-15T00:46:08;3.57;;;2.27;;
11931;SDS011;6025;51.368;6.788;2023-03-15T00:51:00;4.67;;;3.30;;
11931;SDS011;6025;51.368;6.788;2023-03-15T00:55:54;5.13;;;2.83;;
11931;SDS011;6025;51.368;6.788;2023-03-15T01:00:46;12.77;;;6.50;;
11931;SDS011;6025;51.368;6.788;2023-03-15T01:05:37;7.97;;;4.17;;
11931;SDS011;6025;51.368;6.788;2023-03-15T01:10:29;9.63;;;3.93;;
11931;SDS011;6025;51.368;6.788;2023-03-15T01:15:22;6.77;;;4.67;;
11931;SDS011;6025;51.368;6.788;2023-03-15T01:20:14;11.70;;;5.77;;
11931;SDS011;6025;51.368;6.788;2023-03-15T01:25:06;9.77;;;5.40;;
11931;SDS011;6025;51.368;6.788;2023-03-15T01:29:58;7.77;;;5.60;;
11931;SDS011;6025;51.368;6.788;2023-03-15T01:34:51;7.10;;;4.60;;
11931;SDS011;6025;51.368;6.788;2023-03-15T01:39:42;7.87;;;5.33;;
11931;SDS011;6025;51.368;6.788;2023-03-15T01:44:50;9.87;;;6.47;;
11931;SDS011;6025;51.368;6.788;2023-03-15T01:49:43;6.93;;;5.07;;
11931;SDS011;6025;51.368;6.788;2023-03-15T01:54:38;4.00;;;2.63;;
11931;SDS011;6025;51.368;6.788;2023-03-15T01:59:32;2.87;;;2.13;;
11931;SDS011;6025;51.368;6.788;2023-03-15T02:04:27;2.70;;;2.33;;
11931;SDS011;6025;51.368;6.788;2023-03-15T02:09:21;3.37;;;2.63;;
11931;SDS011;6025;51.368;6.788;2023-03-15T02:14:14;3.87;;;2.87;;
11931;SDS011;6025;51.368;6.788;2023-03-15T02:19:05;5.47;;;3.93;;
11931;SDS011;6025;51.368;6.788;2023-03-15T02:24:04;5.97;;;4.23;;
11931;SDS011;6025;51.368;6.788;2023-03-15T02:29:02;7.30;;;4.63;;
11931;SDS011;6025;51.368;6.788;2023-03-15T02:33:54;8.03;;;5.70;;
11931;SDS011;6025;51.368;6.788;2023-03-15T02:38:46;7.03;;;5.90;;
11931;SDS011;6025;51.368;6.788;2023-03-15T02:43:38;7.33;;;6.50;;
11931;SDS011;6025;51.368;6.788;2023-03-15T02:48:32;9.53;;;7.17;;
11931;SDS011;6025;51.368;6.788;2023-03-15T02:53:24;11.10;;;8.07;;
11931;SDS011;6025;51.368;6.788;2023-03-15T02:58:16;9.37;;;7.50;;
11931;SDS011;6025;51.368;6.788;2023-03-15T03:03:07;10.90;;;7.73;;
11931;SDS011;6025;51.368;6.788;2023-03-15T03:08:02;9.53;;;7.07;;
11931;SDS011;6025;51.368;6.788;2023-03-15T03:12:53;11.10;;;8.47;;
11931;SDS011;6025;51.368;6.788;2023-03-15T03:17:45;12.43;;;8.23;;
11931;SDS011;6025;51.368;6.788;2023-03-15T03:22:36;7.27;;;5.43;;
11931;SDS011;6025;51.368;6.788;2023-03-15T03:27:29;6.67;;;5.30;;
11931;SDS011;6025;51.368;6.788;2023-03-15T03:32:21;5.77;;;5.13;;
11931;SDS011;6025;51.368;6.788;2023-03-15T03:37:13;5.80;;;4.73;;
11931;SDS011;6025;51.368;6.788;2023-03-15T03:42:04;6.50;;;4.23;;
11931;SDS011;6025;51.368;6.788;2023-03-15T03:46:57;5.00;;;4.03;;
11931;SDS011;6025;51.368;6.788;2023-03-15T03:51:49;4.00;;;3.10;;
11931;SDS011;6025;51.368;6.788;2023-03-15T03:56:40;5.53;;;3.30;;
11931;SDS011;6025;51.368;6.788;2023-03-15T04:01:32;4.43;;;3.03;;
11931;SDS011;6025;51.368;6.788;2023-03-15T04:06:25;5.50;;;3.07;;
11931;SDS011;6025;51.368;6.788;2023-03-15T04:11:16;4.87;;;3.10;;
11931;SDS011;6025;51.368;6.788;2023-03-15T04:16:08;4.87;;;3.83;;
11931;SDS011;6025;51.368;6.788;2023-03-15T04:20:59;7.03;;;4.20;;
11931;SDS011;6025;51.368;6.788;2023-03-15T04:25:52;7.63;;;5.90;;
11931;SDS011;6025;51.368;6.788;2023-03-15T04:30:45;7.97;;;6.40;;
11931;SDS011;6025;51.368;6.788;2023-03-15T04:35:38;7.17;;;5.93;;
11931;SDS011;6025;51.368;6.788;2023-03-15T04:40:31;6.87;;;5.83;;
11931;SDS011;6025;51.368;6.788;2023-03-15T04:45:25;6.23;;;5.43;;
11931;SDS011;6025;51.368;6.788;2023-03-15T04:50:18;6.67;;;5.93;;
11931;SDS011;6025;51.368;6.788;2023-03-15T04:55:10;7.30;;;6.17;;
11931;SDS011;6025;51.368;6.788;2023-03-15T05:00:02;7.57;;;5.63;;
11931;SDS011;6025;51.368;6.788;2023-03-15T05:04:57;7.50;;;6.77;;
11931;SDS011;6025;51.368;6.788;2023-03-15T05:09:49;8.23;;;6.80;;
11931;SDS011;6025;51.368;6.788;2023-03-15T05:14:41;8.73;;;7.40;;
11931;SDS011;6025;51.368;6.788;2023-03-15T05:19:32;8.47;;;7.10;;
11931;SDS011;6025;51.368;6.788;2023-03-15T05:24:25;10.57;;;7.40;;
11931;SDS011;6025;51.368;6.788;2023-03-15T05:29:17;8.73;;;7.73;;
11931;SDS011;6025;51.368;6.788;2023-03-15T05:34:08;11.80;;;8.93;;
11931;SDS011;6025;51.368;6.788;2023-03-15T05:39:01;11.57;;;9.23;;
11931;SDS011;6025;51.368;6.788;2023-03-15T05:43:54;11.10;;;9.33;;
11931;SDS011;6025;51.368;6.788;2023-03-15T05:48:46;13.90;;;10.30;;
11931;SDS011;6025;51.368;6.788;2023-03-15T05:53:37;14.37;;;10.73;;
11931;SDS011;6025;51.368;6.788;2023-03-15T05:58:29;13.80;;;10.53;;
11931;SDS011;6025;51.368;6.788;2023-03-15T06:03:22;12.93;;;9.60;;
11931;SDS011;6025;51.368;6.788;2023-03-15T06:08:13;10.83;;;9.43;;
11931;SDS011;6025;51.368;6.788;2023-03-15T06:13:05;11.43;;;9.03;;
11931;SDS011;6025;51.368;6.788;2023-03-15T06:17:56;10.90;;;8.70;;
11931;SDS011;6025;51.368;6.788;2023-03-15T06:22:49;10.97;;;8.40;;
11931;SDS011;6025;51.368;6.788;2023-03-15T06:27:41;9.60;;;8.60;;
11931;SDS011;6025;51.368;6.788;2023-03-15T06:32:32;10.23;;;8.43;;
11931;SDS011;6025;51.368;6.788;2023-03-15T06:37:24;11.00;;;8.60;;
11931;SDS011;6025;51.368;6.788;2023-03-15T06:42:17;12.70;;;9.27;;
11931;SDS011;6025;51.368;6.788;2023-03-15T06:47:09;10.53;;;8.63;;
11931;SDS011;6025;51.368;6.788;2023-03-15T06:52:01;11.50;;;8.23;;
11931;SDS011;6025;51.368;6.788;2023-03-15T06:56:52;10.20;;;8.93;;
11931;SDS011;6025;51.368;6.788;2023-03-15T07:01:45;11.33;;;9.43;;
11931;SDS011;6025;51.368;6.788;2023-03-15T07:06:37;13.47;;;9.63;;
11931;SDS011;6025;51.368;6.788;2023-03-15T07:11:28;13.17;;;10.33;;
11931;SDS011;6025;51.368;6.788;2023-03-15T07:16:20;12.73;;;9.23;;
11931;SDS011;6025;51.368;6.788;2023-03-15T07:21:13;11.30;;;7.97;;
11931;SDS011;6025;51.368;6.788;2023-03-15T07:26:04;10.13;;;8.20;;
11931;SDS011;6025;51.368;6.788;2023-03-15T07:30:57;11.80;;;7.20;;
11931;SDS011;6025;51.368;6.788;2023-03-15T07:35:49;9.00;;;6.30;;
11931;SDS011;6025;51.368;6.788;2023-03-15T07:40:42;10.67;;;6.70;;
11931;SDS011;6025;51.368;6.788;2023-03-15T07:45:33;7.50;;;5.47;;
11931;SDS011;6025;51.368;6.788;2023-03-15T07:50:25;6.93;;;5.40;;
11931;SDS011;6025;51.368;6.788;2023-03-15T07:55:16;11.77;;;6.07;;
11931;SDS011;6025;51.368;6.788;2023-03-15T08:00:11;6.40;;;5.70;;
11931;SDS011;6025;51.368;6.788;2023-03-15T08:05:03;8.83;;;5.80;;
11931;SDS011;6025;51.368;6.788;2023-03-15T08:09:55;9.90;;;6.00;;
11931;SDS011;6025;51.368;6.788;2023-03-15T08:14:48;7.33;;;5.37;;
11931;SDS011;6025;51.368;6.788;2023-03-15T08:19:41;11.30;;;5.90;;
11931;SDS011;6025;51.368;6.788;2023-03-15T08:24:33;7.90;;;5.57;;
11931;SDS011;6025;51.368;6.788;2023-03-15T08:29:25;7.00;;;5.13;;
11931;SDS011;6025;51.368;6.788;2023-03-15T08:34:17;7.60;;;5.20;;
11931;SDS011;6025;51.368;6.788;2023-03-15T08:39:10;7.63;;;4.27;;
11931;SDS011;6025;51.368;6.788;2023-03-15T08:44:01;8.70;;;4.70;;
11931;SDS011;6025;51.368;6.788;2023-03-15T08:48:53;7.17;;;5.03;;
11931;SDS011;6025;51.368;6.788;2023-03-15T08:53:44;8.10;;;4.40;;
11931;SDS011;6025;51.368;6.788;2023-03-15T08:58:37;8.13;;;4.20;;
11931;SDS011;6025;51.368;6.788;2023-03-15T09:03:29;7.10;;;4.67;;
11931;SDS011;6025;51.368;6.788;2023-03-15T09:08:21;12.60;;;6.20;;
11931;SDS011;6025;51.368;6.788;2023-03-15T09:13:14;12.17;;;8.07;;
11931;SDS011;6025;51.368;6.788;2023-03-15T09:18:07;11.40;;;7.47;;
11931;SDS011;6025;51.368;6.788;2023-03-15T09:22:58;9.17;;;5.83;;
11931;SDS011;6025;51.368;6.788;2023-03-15T09:27:50;12.27;;;7.40;;
11931;SDS011;6025;51.368;6.788;2023-03-15T09:32:42;11.30;;;8.80;;
11931;SDS011;6025;51.368;6.788;2023-03-15T09:37:36;18.27;;;9.93;;
11931;SDS011;6025;51.368;6.788;2023-03-15T09:42:29;14.43;;;9.17;;
11931;SDS011;6025;51.368;6.788;2023-03-15T09:47:31;13.53;;;7.30;;
11931;SDS011;6025;51.368;6.788;2023-03-15T09:52:29;11.30;;;7.20;;
11931;SDS011;6025;51.368;6.788;2023-03-15T09:57:28;6.70;;;4.10;;
11931;SDS011;6025;51.368;6.788;2023-03-15T10:02:26;7.30;;;3.90;;
11931;SDS011;6025;51.368;6.788;2023-03-15T10:07:19;8.67;;;4.50;;
11931;SDS011;6025;51.368;6.788;2023-03-15T10:12:10;9.10;;;4.60;;
11931;SDS011;6025;51.368;6.788;2023-03-15T10:17:06;7.37;;;4.43;;
11931;SDS011;6025;51.368;6.788;2023-03-15T10:22:02;6.83;;;3.70;;
11931;SDS011;6025;51.368;6.788;2023-03-15T10:26:58;6.23;;;3.60;;
11931;SDS011;6025;51.368;6.788;2023-03-15T10:31:55;5.67;;;2.80;;
11931;SDS011;6025;51.368;6.788;2023-03-15T10:36:49;6.03;;;3.33;;
11931;SDS011;6025;51.368;6.788;2023-03-15T10:41:44;4.90;;;2.40;;
11931;SDS011;6025;51.368;6.788;2023-03-15T10:46:36;4.40;;;2.10;;
11931;SDS011;6025;51.368;6.788;2023-03-15T10:51:29;4.97;;;2.00;;
11931;SDS011;6025;51.368;6.788;2023-03-15T10:56:24;6.50;;;2.33;;
11931;SDS011;6025;51.368;6.788;2023-03-15T11:01:21;7.60;;;2.10;;
11931;SDS011;6025;51.368;6.788;2023-03-15T11:06:18;6.63;;;1.97;;
11931;SDS011;6025;51.368;6.788;2023-03-15T11:11:11;5.03;;;2.50;;
11931;SDS011;6025;51.368;6.788;2023-03-15T11:16:04;4.53;;;2.10;;
11931;SDS011;6025;51.368;6.788;2023-03-15T11:20:58;5.17;;;2.33;;
11931;SDS011;6025;51.368;6.788;2023-03-15T11:25:52;5.33;;;2.20;;
11931;SDS011;6025;51.368;6.788;2023-03-15T11:30:44;3.72;;;2.10;;
11931;SDS011;6025;51.368;6.788;2023-03-15T11:35:40;5.95;;;2.38;;
11931;SDS011;6025;51.368;6.788;2023-03-15T11:40:37;7.47;;;2.08;;
11931;SDS011;6025;51.368;6.788;2023-03-15T11:45:33;5.60;;;1.80;;
11931;SDS011;6025;51.368;6.788;2023-03-15T11:50:27;3.67;;;1.98;;
11931;SDS011;6025;51.368;6.788;2023-03-15T11:55:21;4.25;;;1.50;;
11931;SDS011;6025;51.368;6.788;2023-03-15T12:00:17;3.97;;;1.55;;
11931;SDS011;6025;51.368;6.788;2023-03-15T12:05:39;4.53;;;1.60;;
11931;SDS011;6025;51.368;6.788;2023-03-15T12:10:37;6.78;;;1.90;;
11931;SDS011;6025;51.368;6.788;2023-03-15T12:15:42;4.72;;;1.55;;
11931;SDS011;6025;51.368;6.788;2023-03-15T12:20:36;7.88;;;2.42;;
11931;SDS011;6025;51.368;6.788;2023-03-15T12:25:30;5.82;;;2.20;;
11931;SDS011;6025;51.368;6.788;2023-03-15T12:30:31;4.68;;;1.55;;
11931;SDS011;6025;51.368;6.788;2023-03-15T12:35:26;4.22;;;1.50;;
11931;SDS011;6025;51.368;6.788;2023-03-15T12:40:36;4.30;;;2.00;;
11931;SDS011;6025;51.368;6.788;2023-03-15T12:45:35;3.78;;;1.80;;
11931;SDS011;6025;51.368;6.788;2023-03-15T12:50:35;3.53;;;1.83;;
11931;SDS011;6025;51.368;6.788;2023-03-15T12:55:27;3.42;;;1.48;;
11931;SDS011;6025;51.368;6.788;2023-03-15T13:00:24;4.35;;;2.13;;
11931;SDS011;6025;51.368;6.788;2023-03-15T13:05:23;5.30;;;1.85;;
11931;SDS011;6025;51.368;6.788;2023-03-15T13:10:34;2.72;;;1.30;;
11931;SDS011;6025;51.368;6.788;2023-03-15T13:15:32;4.28;;;1.27;;
11931;SDS011;6025;51.368;6.788;2023-03-15T13:20:35;4.00;;;2.00;;
11931;SDS011;6025;51.368;6.788;2023-03-15T13:25:31;6.60;;;2.70;;
11931;SDS011;6025;51.368;6.788;2023-03-15T13:30:29;7.70;;;2.83;;
11931;SDS011;6025;51.368;6.788;2023-03-15T13:35:23;10.55;;;2.83;;
11931;SDS011;6025;51.368;6.788;2023-03-15T13:40:16;3.28;;;1.50;;
11931;SDS011;6025;51.368;6.788;2023-03-15T13:45:11;3.78;;;1.33;;
11931;SDS011;6025;51.368;6.788;2023-03-15T13:50:04;6.60;;;1.80;;
11931;SDS011;6025;51.368;6.788;2023-03-15T13:54:56;4.20;;;1.70;;
11931;SDS011;6025;51.368;6.788;2023-03-15T13:59:52;4.68;;;1.80;;
11931;SDS011;6025;51.368;6.788;2023-03-15T14:04:51;5.88;;;2.05;;
11931;SDS011;6025;51.368;6.788;2023-03-15T14:09:43;6.07;;;2.00;;
11931;SDS011;6025;51.368;6.788;2023-03-15T14:14:36;5.45;;;1.70;;
11931;SDS011;6025;51.368;6.788;2023-03-15T14:19:31;5.40;;;1.80;;
11931;SDS011;6025;51.368;6.788;2023-03-15T14:24:28;3.00;;;1.63;;
11931;SDS011;6025;51.368;6.788;2023-03-15T14:29:22;5.38;;;2.00;;
11931;SDS011;6025;51.368;6.788;2023-03-15T14:34:20;4.45;;;1.73;;
11931;SDS011;6025;51.368;6.788;2023-03-15T14:39:17;4.03;;;1.60;;
11931;SDS011;6025;51.368;6.788;2023-03-15T14:44:10;3.70;;;1.67;;
11931;SDS011;6025;51.368;6.788;2023-03-15T14:49:02;3.63;;;1.58;;
11931;SDS011;6025;51.368;6.788;2023-03-15T14:53:54;3.58;;;1.40;;
11931;SDS011;6025;51.368;6.788;2023-03-15T14:58:48;6.13;;;1.50;;
11931;SDS011;6025;51.368;6.788;2023-03-15T15:03:44;2.55;;;1.30;;
11931;SDS011;6025;51.368;6.788;2023-03-15T15:08:36;5.20;;;1.80;;
11931;SDS011;6025;51.368;6.788;2023-03-15T15:13:29;4.00;;;1.48;;
11931;SDS011;6025;51.368;6.788;2023-03-15T15:18:23;5.40;;;1.65;;
11931;SDS011;6025;51.368;6.788;2023-03-15T15:23:16;2.25;;;1.10;;
11931;SDS011;6025;51.368;6.788;2023-03-15T15:28:09;3.80;;;1.20;;
11931;SDS011;6025;51.368;6.788;2023-03-15T15:33:01;5.10;;;1.38;;
11931;SDS011;6025;51.368;6.788;2023-03-15T15:37:54;3.28;;;1.25;;
11931;SDS011;6025;51.368;6.788;2023-03-15T15:42:46;3.97;;;1.10;;
11931;SDS011;6025;51.368;6.788;2023-03-15T15:47:37;2.38;;;1.20;;
11931;SDS011;6025;51.368;6.788;2023-03-15T15:52:29;3.90;;;1.00;;
11931;SDS011;6025;51.368;6.788;2023-03-15T15:57:22;3.30;;;1.33;;
11931;SDS011;6025;51.368;6.788;2023-03-15T16:02:15;2.83;;;1.13;;
11931;SDS011;6025;51.368;6.788;2023-03-15T16:07:11;2.88;;;1.17;;
11931;SDS011;6025;51.368;6.788;2023-03-15T16:12:08;3.97;;;1.10;;
11931;SDS011;6025;51.368;6.788;2023-03-15T16:17:04;4.78;;;1.20;;
11931;SDS011;6025;51.368;6.788;2023-03-15T16:21:58;2.08;;;0.90;;
11931;SDS011;6025;51.368;6.788;2023-03-15T16:26:50;4.78;;;1.10;;
11931;SDS011;6025;51.368;6.788;2023-03-15T16:31:43;3.22;;;1.00;;
11931;SDS011;6025;51.368;6.788;2023-03-15T16:36:36;4.65;;;1.20;;
11931;SDS011;6025;51.368;6.788;2023-03-15T16:41:28;4.53;;;1.38;;
11931;SDS011;6025;51.368;6.788;2023-03-15T16:46:19;4.00;;;1.20;;
11931;SDS011;6025;51.368;6.788;2023-03-15T16:51:12;3.43;;;1.10;;
11931;SDS011;6025;51.368;6.788;2023-03-15T16:56:08;4.20;;;0.97;;
11931;SDS011;6025;51.368;6.788;2023-03-15T17:01:00;3.10;;;0.90;;
11931;SDS011;6025;51.368;6.788;2023-03-15T17:05:52;5.97;;;1.20;;
11931;SDS011;6025;51.368;6.788;2023-03-15T17:10:44;4.67;;;1.53;;
11931;SDS011;6025;51.368;6.788;2023-03-15T17:15:37;1.83;;;0.97;;
11931;SDS011;6025;51.368;6.788;2023-03-15T17:20:29;3.37;;;1.10;;
11931;SDS011;6025;51.368;6.788;2023-03-15T17:25:21;1.83;;;0.90;;
11931;SDS011;6025;51.368;6.788;2023-03-15T17:30:14;4.40;;;1.30;;
11931;SDS011;6025;51.368;6.788;2023-03-15T17:35:08;2.43;;;0.80;;
11931;SDS011;6025;51.368;6.788;2023-03-15T17:40:00;3.20;;;0.70;;
11931;SDS011;6025;51.368;6.788;2023-03-15T17:44:59;2.77;;;1.10;;
11931;SDS011;6025;51.368;6.788;2023-03-15T17:49:53;1.73;;;0.73;;
11931;SDS011;6025;51.368;6.788;2023-03-15T17:54:46;4.70;;;1.00;;
11931;SDS011;6025;51.368;6.788;2023-03-15T17:59:37;1.93;;;1.03;;
11931;SDS011;6025;51.368;6.788;2023-03-15T18:04:29;2.60;;;1.20;;
11931;SDS011;6025;51.368;6.788;2023-03-15T18:09:21;2.13;;;0.93;;
11931;SDS011;6025;51.368;6.788;2023-03-15T18:14:16;3.77;;;1.00;;
11931;SDS011;6025;51.368;6.788;2023-03-15T18:19:08;4.10;;;0.87;;
11931;SDS011;6025;51.368;6.788;2023-03-15T18:24:00;1.97;;;0.77;;
11931;SDS011;6025;51.368;6.788;2023-03-15T18:28:51;1.93;;;1.00;;
11931;SDS011;6025;51.368;6.788;2023-03-15T18:33:44;4.43;;;1.50;;
11931;SDS011;6025;51.368;6.788;2023-03-15T18:38:36;4.77;;;1.20;;
11931;SDS011;6025;51.368;6.788;2023-03-15T18:43:27;2.63;;;1.30;;
11931;SDS011;6025;51.368;6.788;2023-03-15T18:48:19;3.27;;;1.70;;
11931;SDS011;6025;51.368;6.788;2023-03-15T18:53:12;4.03;;;1.90;;
11931;SDS011;6025;51.368;6.788;2023-03-15T18:58:04;3.17;;;1.37;;
11931;SDS011;6025;51.368;6.788;2023-03-15T19:02:58;3.47;;;1.20;;
11931;SDS011;6025;51.368;6.788;2023-03-15T19:07:50;2.10;;;1.20;;
11931;SDS011;6025;51.368;6.788;2023-03-15T19:12:44;2.60;;;1.00;;
11931;SDS011;6025;51.368;6.788;2023-03-15T19:17:36;3.43;;;0.93;;
11931;SDS011;6025;51.368;6.788;2023-03-15T19:22:27;3.23;;;1.27;;
11931;SDS011;6025;51.368;6.788;2023-03-15T19:27:20;3.20;;;1.17;;
11931;SDS011;6025;51.368;6.788;2023-03-15T19:32:13;3.37;;;1.00;;
11931;SDS011;6025;51.368;6.788;2023-03-15T19:37:04;3.20;;;1.07;;
11931;SDS011;6025;51.368;6.788;2023-03-15T19:41:56;3.80;;;1.20;;
11931;SDS011;6025;51.368;6.788;2023-03-15T19:46:48;5.33;;;1.00;;
11931;SDS011;6025;51.368;6.788;2023-03-15T19:51:41;2.57;;;1.20;;
11931;SDS011;6025;51.368;6.788;2023-03-15T19:56:32;3.93;;;1.27;;
11931;SDS011;6025;51.368;6.788;2023-03-15T20:01:24;4.70;;;1.57;;
11931;SDS011;6025;51.368;6.788;2023-03-15T20:06:15;3.10;;;1.70;;
11931;SDS011;6025;51.368;6.788;2023-03-15T20:11:08;5.47;;;1.70;;
11931;SDS011;6025;51.368;6.788;2023-03-15T20:16:04;3.93;;;1.50;;
11931;SDS011;6025;51.368;6.788;2023-03-15T20:20:56;2.97;;;1.50;;
11931;SDS011;6025;51.368;6.788;2023-03-15T20:25:47;5.40;;;1.50;;
11931;SDS011;6025;51.368;6.788;2023-03-15T20:30:41;3.03;;;1.57;;
11931;SDS011;6025;51.368;6.788;2023-03-15T20:35:33;3.23;;;1.60;;
11931;SDS011;6025;51.368;6.788;2023-03-15T20:40:25;4.13;;;1.90;;
11931;SDS011;6025;51.368;6.788;2023-03-15T20:45:16;4.17;;;1.83;;
11931;SDS011;6025;51.368;6.788;2023-03-15T20:50:10;4.50;;;1.80;;
11931;SDS011;6025;51.368;6.788;2023-03-15T20:55:02;4.53;;;1.80;;
11931;SDS011;6025;51.368;6.788;2023-03-15T21:00:03;3.70;;;1.90;;
11931;SDS011;6025;51.368;6.788;2023-03-15T21:05:01;3.10;;;2.00;;
11931;SDS011;6025;51.368;6.788;2023-03-15T21:09:54;4.57;;;2.10;;
11931;SDS011;6025;51.368;6.788;2023-03-15T21:14:45;2.63;;;1.87;;
11931;SDS011;6025;51.368;6.788;2023-03-15T21:19:37;3.10;;;2.03;;
11931;SDS011;6025;51.368;6.788;2023-03-15T21:24:28;4.23;;;2.00;;
11931;SDS011;6025;51.368;6.788;2023-03-15T21:29:22;2.57;;;1.73;;
11931;SDS011;6025;51.368;6.788;2023-03-15T21:34:14;5.03;;;2.00;;
11931;SDS011;6025;51.368;6.788;2023-03-15T21:39:05;4.47;;;1.90;;
11931;SDS011;6025;51.368;6.788;2023-03-15T21:43:57;4.17;;;2.17;;
11931;SDS011;6025;51.368;6.788;2023-03-15T21:48:50;5.37;;;2.00;;
11931;SDS011;6025;51.368;6.788;2023-03-15T21:53:41;5.13;;;1.80;;
11931;SDS011;6025;51.368;6.788;2023-03-15T21:58:35;5.90;;;2.13;;
11931;SDS011;6025;51.368;6.788;2023-03-15T22:03:26;4.27;;;2.10;;
11931;SDS011;6025;51.368;6.788;2023-03-15T22:08:19;6.10;;;1.90;;
11931;SDS011;6025;51.368;6.788;2023-03-15T22:13:11;3.17;;;1.90;;
11931;SDS011;6025;51.368;6.788;2023-03-15T22:18:03;4.60;;;2.23;;
11931;SDS011;6025;51.368;6.788;2023-03-15T22:22:54;2.53;;;1.70;;
11931;SDS011;6025;51.368;6.788;2023-03-15T22:27:47;2.63;;;1.87;;
11931;SDS011;6025;51.368;6.788;2023-03-15T22:32:40;3.80;;;1.87;;
11931;SDS011;6025;51.368;6.788;2023-03-15T22:37:33;4.47;;;1.87;;
11931;SDS011;6025;51.368;6.788;2023-03-15T22:42:24;4.17;;;2.00;;
11931;SDS011;6025;51.368;6.788;2023-03-15T22:47:17;3.60;;;1.67;;
11931;SDS011;6025;51.368;6.788;2023-03-15T22:52:09;3.47;;;1.70;;
11931;SDS011;6025;51.368;6.788;2023-03-15T22:57:00;5.07;;;1.93;;
11931;SDS011;6025;51.368;6.788;2023-03-15T23:01:52;2.13;;;1.50;;
11931;SDS011;6025;51.368;6.788;2023-03-15T23:06:45;3.47;;;1.80;;
11931;SDS011;6025;51.368;6.788;2023-03-15T23:11:37;3.97;;;1.60;;
11931;SDS011;6025;51.368;6.788;2023-03-15T23:16:28;3.30;;;1.37;;
11931;SDS011;6025;51.368;6.788;2023-03-15T23:21:20;2.80;;;1.50;;
11931;SDS011;6025;51.368;6.788;2023-03-15T23:26:13;4.23;;;1.70;;
11931;SDS011;6025;51.368;6.788;2023-03-15T23:31:06;2.30;;;1.43;;
11931;SDS011;6025;51.368;6.788;2023-03-15T23:35:57;3.13;;;1.70;;
11931;SDS011;6025;51.368;6.788;2023-03-15T23:40:52;3.40;;;1.40;;
11931;SDS011;6025;51.368;6.788;2023-03-15T23:45:45;2.17;;;1.50;;
11931;SDS011;6025;51.368;6.788;2023-03-15T23:50:37;4.07;;;1.70;;
11931;SDS011;6025;51.368;6.788;2023-03-15T23:55:28;3.03;;;1.60;;
